This is the latest recevied weather packets stored in our database for station/object K5OBH. If no packets are shown the sender has not sent any weather packets the latest 10 day(s).
| Time | Temp. | Humidity | Pressure | Rain* | Wind** | Luminosity | Snow |
|---|---|---|---|---|---|---|---|
| 1777906619 | 20.56° C | 58% | 1007.7 hPa | 0 mm | - | 372 W/m² | - |
| 1777906314 | 21.11° C | 57% | 1007.5 hPa | 0 mm | - | 360 W/m² | - |
| 1777906011 | 20.56° C | 58% | 1007.9 hPa | 0 mm | - | 339 W/m² | - |
| 1777905404 | 20° C | 59% | 1008 hPa | 0 mm | - | 330 W/m² | - |
| 1777905102 | 20.56° C | 59% | 1007.9 hPa | 0 mm | - | 302 W/m² | - |
| 1777904192 | 19.44° C | 61% | 1008.2 hPa | 0 mm | - | 247 W/m² | - |
| 1777903890 | 18.89° C | 61% | 1008.4 hPa | 0 mm | - | 229 W/m² | - |
| 1777903587 | 18.89° C | 62% | 1008.1 hPa | 0 mm | - | 210 W/m² | - |
| 1777903282 | 18.89° C | 63% | 1008.1 hPa | 0 mm | - | 210 W/m² | - |
| 1777902980 | 18.89° C | 63% | 1008.2 hPa | 0 mm | - | 218 W/m² | - |
| 1777902374 | 18.33° C | 63% | 1008.4 hPa | 0 mm | - | 206 W/m² | - |
| 1777902070 | 18.33° C | 63% | 1008.3 hPa | 0 mm | - | 201 W/m² | - |
| 1777901769 | 18.33° C | 63% | 1008.2 hPa | 0 mm | - | 179 W/m² | - |
| 1777901163 | 17.78° C | 64% | 1008.3 hPa | 0 mm | - | 162 W/m² | - |
| 1777900861 | 17.78° C | 64% | 1008.2 hPa | 0 mm | - | 135 W/m² | - |
| 1777900558 | 17.78° C | 65% | 1008.2 hPa | 0 mm | - | 124 W/m² | - |
| 1777898135 | 17.22° C | 65% | 1008.3 hPa | 0 mm | - | 64 W/m² | - |
| 1777897831 | 17.22° C | 65% | 1008.3 hPa | 0 mm | - | 53 W/m² | - |
| 1777897527 | 17.22° C | 66% | 1008.3 hPa | 0 mm | - | 45 W/m² | - |
| 1777897223 | 16.67° C | 65% | 1008.4 hPa | 0 mm | - | 38 W/m² | - |
| 1777896920 | 16.67° C | 66% | 1008.3 hPa | 0 mm | - | 22 W/m² | - |
| 1777896617 | 16.67° C | 67% | 1008.3 hPa | 0 mm | - | 20 W/m² | - |
| 1777896314 | 16.67° C | 67% | 1008.3 hPa | 0 mm | - | 17 W/m² | - |
| 1777895710 | 16.67° C | 67% | 1008.5 hPa | 0 mm | - | 12 W/m² | - |
| 1777894498 | 16.67° C | 66% | 1008.5 hPa | 0 mm | - | 2 W/m² | - |
* Rain latest hour (hover to see other rain measurements)
** Current wind speed in m/s (hover to see current wind gust speed)